createdAt,value
2018-11-01T00:01:05.500Z,101519.92
2018-11-01T00:03:34.094Z,101519.70
2018-11-01T00:06:02.148Z,101514.89
2018-11-01T00:08:30.212Z,101512.77
2018-11-01T00:10:58.264Z,101510.63
2018-11-01T00:13:26.332Z,101512.56
2018-11-01T00:15:54.560Z,101518.09
2018-11-01T00:18:22.612Z,101516.80
2018-11-01T00:20:50.685Z,101508.30
2018-11-01T00:23:18.771Z,101504.47
2018-11-01T00:25:46.828Z,101505.03
2018-11-01T00:28:14.892Z,101509.81
2018-11-01T00:30:42.940Z,101511.20
2018-11-01T00:33:11.003Z,101516.16
2018-11-01T00:35:39.056Z,101520.81
2018-11-01T00:38:07.101Z,101514.14
2018-11-01T00:40:35.173Z,101521.05
2018-11-01T00:43:03.245Z,101512.76
2018-11-01T00:45:31.308Z,101515.40
2018-11-01T00:47:59.368Z,101514.66
2018-11-01T00:50:27.422Z,101508.92
2018-11-01T00:52:55.481Z,101514.77
2018-11-01T00:55:23.524Z,101517.34
2018-11-01T00:57:51.703Z,101521.86
2018-11-01T01:00:19.778Z,101523.30
2018-11-01T01:02:47.891Z,101523.06
2018-11-01T01:05:15.943Z,101519.20
2018-11-01T01:07:43.996Z,101519.91
2018-11-01T01:10:14.847Z,101517.19
2018-11-01T01:12:43.722Z,101515.89
2018-11-01T01:15:11.787Z,101518.20
2018-11-01T01:17:40.086Z,101510.23
2018-11-01T01:20:10.528Z,101514.06
2018-11-01T01:22:38.640Z,101514.62
2018-11-01T01:25:08.477Z,101509.47
2018-11-01T01:27:36.768Z,101503.44
2018-11-01T01:30:05.389Z,101504.55
2018-11-01T01:32:33.435Z,101501.00
2018-11-01T01:35:01.501Z,101496.59
2018-11-01T01:37:29.568Z,101491.06
2018-11-01T01:39:57.617Z,101490.52
2018-11-01T01:42:29.874Z,101487.48
2018-11-01T01:44:57.927Z,101488.68
2018-11-01T01:47:25.997Z,101489.32
2018-11-01T01:49:54.052Z,101487.67
2018-11-01T01:52:22.109Z,101486.93
2018-11-01T01:54:50.160Z,101482.84
2018-11-01T01:57:18.212Z,101488.97
2018-11-01T01:59:46.259Z,101486.47
2018-11-01T02:02:14.319Z,101487.58
2018-11-01T02:04:42.395Z,101484.28
2018-11-01T02:07:10.508Z,101480.97
2018-11-01T02:09:38.555Z,101474.13
2018-11-01T02:12:06.639Z,101477.39
2018-11-01T02:14:34.716Z,101477.09
2018-11-01T02:17:02.752Z,101471.53
2018-11-01T02:19:30.852Z,101471.48
2018-11-01T02:21:58.889Z,101469.55
2018-11-01T02:24:26.939Z,101457.13
2018-11-01T02:26:54.983Z,101448.84
2018-11-01T02:29:23.032Z,101448.34
2018-11-01T02:31:51.082Z,101444.44
2018-11-01T02:34:19.136Z,101436.43
2018-11-01T02:36:47.220Z,101437.55
2018-11-01T02:39:15.276Z,101425.95
2018-11-01T02:41:43.332Z,101418.55
2018-11-01T02:44:11.420Z,101409.44
2018-11-01T02:46:39.601Z,101410.88
2018-11-01T02:49:08.404Z,101414.45
2018-11-01T02:51:36.444Z,101410.59
2018-11-01T02:54:04.504Z,101413.34
2018-11-01T02:56:32.704Z,101407.83
2018-11-01T02:59:00.797Z,101405.30
2018-11-01T03:01:28.851Z,101412.97
2018-11-01T03:03:56.913Z,101414.85
2018-11-01T03:06:24.961Z,101418.35
2018-11-01T03:08:53.002Z,101420.32
2018-11-01T03:11:21.037Z,101430.48
2018-11-01T03:13:49.089Z,101437.30
2018-11-01T03:16:17.137Z,101436.13
2018-11-01T03:18:45.196Z,101430.34
2018-11-01T03:21:13.238Z,101425.14
2018-11-01T03:23:41.281Z,101421.00
2018-11-01T03:26:09.314Z,101421.88
2018-11-01T03:28:37.365Z,101422.49
2018-11-01T03:31:05.620Z,101425.58
2018-11-01T03:33:33.688Z,101434.67
2018-11-01T03:36:02.093Z,101429.39
2018-11-01T03:38:30.245Z,101423.87
2018-11-01T03:40:58.195Z,101424.46
2018-11-01T03:43:26.263Z,101416.23
2018-11-01T03:45:54.310Z,101419.05
2018-11-01T03:48:22.367Z,101410.27
2018-11-01T03:50:50.421Z,101408.65
2018-11-01T03:53:18.540Z,101405.30
2018-11-01T03:55:46.564Z,101407.00
2018-11-01T03:58:14.620Z,101406.73
2018-11-01T04:00:42.681Z,101406.78
2018-11-01T04:03:10.743Z,101402.38
2018-11-01T04:05:38.792Z,101404.03
2018-11-01T04:08:06.849Z,101405.14
2018-11-01T04:10:34.889Z,101396.07
2018-11-01T04:13:02.949Z,101395.30
2018-11-01T04:15:31.020Z,101388.17
2018-11-01T04:17:59.068Z,101393.97
2018-11-01T04:20:27.106Z,101389.83
2018-11-01T04:22:55.153Z,101392.36
2018-11-01T04:25:23.211Z,101392.36
2018-11-01T04:27:51.314Z,101384.95
2018-11-01T04:30:19.348Z,101389.09
2018-11-01T04:32:47.428Z,101378.11
2018-11-01T04:35:15.489Z,101380.92
2018-11-01T04:37:43.533Z,101381.06
2018-11-01T04:40:11.689Z,101374.59
2018-11-01T04:42:40.039Z,101365.80
2018-11-01T04:45:09.351Z,101365.06
2018-11-01T04:47:37.472Z,101358.33
2018-11-01T04:50:06.412Z,101364.84
2018-11-01T04:52:34.488Z,101368.57
2018-11-01T04:55:02.529Z,101363.64
2018-11-01T04:57:30.572Z,101361.44
2018-11-01T04:59:58.625Z,101359.24
2018-11-01T05:02:26.684Z,101365.39
2018-11-01T05:04:54.783Z,101360.16
2018-11-01T05:07:22.836Z,101349.50
2018-11-01T05:09:50.878Z,101354.88
2018-11-01T05:12:18.933Z,101351.19
2018-11-01T05:14:47.053Z,101356.19
2018-11-01T05:17:15.089Z,101349.58
2018-11-01T05:19:43.155Z,101353.57
2018-11-01T05:22:11.192Z,101360.22
2018-11-01T05:24:39.345Z,101361.41
2018-11-01T05:27:07.313Z,101357.12
2018-11-01T05:29:35.427Z,101355.83
2018-11-01T05:32:03.460Z,101358.63
2018-11-01T05:34:31.614Z,101350.73
2018-11-01T05:36:59.592Z,101357.84
2018-11-01T05:39:27.640Z,101356.75
2018-11-01T05:41:55.682Z,101345.45
2018-11-01T05:44:23.736Z,101342.42
2018-11-01T05:46:51.780Z,101337.47
2018-11-01T05:49:19.827Z,101334.11
2018-11-01T05:51:47.867Z,101338.20
2018-11-01T05:54:16.053Z,101342.02
2018-11-01T05:56:44.103Z,101331.82
2018-11-01T05:59:12.156Z,101329.58
2018-11-01T06:01:45.668Z,101321.04
2018-11-01T06:04:13.717Z,101320.17
2018-11-01T06:06:41.780Z,101315.44
2018-11-01T06:09:10.194Z,101312.09
2018-11-01T06:11:38.248Z,101316.13
2018-11-01T06:14:06.306Z,101312.70
2018-11-01T06:16:34.360Z,101312.65
2018-11-01T06:19:02.405Z,101304.94
2018-11-01T06:21:30.456Z,101289.23
2018-11-01T06:23:58.501Z,101285.59
2018-11-01T06:26:26.577Z,101289.41
2018-11-01T06:28:54.624Z,101282.47
2018-11-01T06:31:22.705Z,101290.69
2018-11-01T06:33:50.745Z,101280.45
2018-11-01T06:36:18.805Z,101285.36
2018-11-01T06:38:46.872Z,101293.63
2018-11-01T06:41:14.940Z,101292.76
2018-11-01T06:43:43.009Z,101293.00
2018-11-01T06:46:11.072Z,101299.84
2018-11-01T06:48:39.124Z,101294.00
2018-11-01T06:51:07.452Z,101296.16
2018-11-01T06:53:35.536Z,101294.91
2018-11-01T06:56:03.608Z,101284.62
2018-11-01T06:58:31.796Z,101275.37
2018-11-01T07:00:59.744Z,101276.00
2018-11-01T07:03:27.817Z,101263.20
2018-11-01T07:05:55.884Z,101258.17
2018-11-01T07:08:23.961Z,101259.44
2018-11-01T07:10:52.016Z,101257.29
2018-11-01T07:13:20.081Z,101268.20
2018-11-01T07:15:48.164Z,101263.02
2018-11-01T07:18:16.215Z,101271.39
2018-11-01T07:20:44.347Z,101274.14
2018-11-01T07:23:12.392Z,101282.66
2018-11-01T07:25:40.497Z,101283.66
2018-11-01T07:28:08.517Z,101283.70
2018-11-01T07:30:36.577Z,101276.85
2018-11-01T07:33:04.814Z,101279.55
2018-11-01T07:35:32.803Z,101278.62
2018-11-01T07:38:00.891Z,101280.23
2018-11-01T07:40:28.933Z,101295.03
2018-11-01T07:42:57.029Z,101298.37
2018-11-01T07:45:25.121Z,101287.52
2018-11-01T07:47:53.176Z,101278.88
2018-11-01T07:50:21.233Z,101274.64
2018-11-01T07:52:49.366Z,101275.14
2018-11-01T07:55:17.370Z,101254.08
2018-11-01T07:57:45.488Z,101252.92
2018-11-01T08:00:15.141Z,101241.55
2018-11-01T08:02:43.952Z,101234.36
2018-11-01T08:05:12.514Z,101232.48
2018-11-01T08:07:41.108Z,101228.06
2018-11-01T08:10:11.361Z,101224.73
2018-11-01T08:12:39.616Z,101221.41
2018-11-01T08:15:10.073Z,101215.33
2018-11-01T08:17:38.123Z,101211.83
2018-11-01T08:20:07.408Z,101208.30
2018-11-01T08:22:35.258Z,101216.09
2018-11-01T08:25:03.347Z,101222.69
2018-11-01T08:27:31.393Z,101219.17
2018-11-01T08:29:59.676Z,101219.77
2018-11-01T08:32:27.755Z,101231.47
2018-11-01T08:34:55.824Z,101228.19
2018-11-01T08:37:23.897Z,101225.70
2018-11-01T08:39:51.973Z,101230.44
2018-11-01T08:42:20.051Z,101228.23
2018-11-01T08:44:48.109Z,101227.97
2018-11-01T08:47:16.166Z,101225.50
2018-11-01T08:49:44.253Z,101223.41
2018-11-01T08:52:12.332Z,101221.88
2018-11-01T08:54:40.392Z,101213.27
2018-11-01T08:57:08.446Z,101208.94
2018-11-01T08:59:36.524Z,101205.70
2018-11-01T09:02:04.618Z,101201.22
2018-11-01T09:04:32.668Z,101195.45
2018-11-01T09:07:00.721Z,101196.28
2018-11-01T09:09:28.808Z,101194.22
2018-11-01T09:11:56.881Z,101201.40
2018-11-01T09:14:24.976Z,101194.59
2018-11-01T09:16:53.016Z,101189.98
2018-11-01T09:19:21.094Z,101183.52
2018-11-01T09:21:49.143Z,101176.95
2018-11-01T09:24:17.232Z,101176.28
2018-11-01T09:26:45.297Z,101172.16
2018-11-01T09:29:13.366Z,101174.84
2018-11-01T09:31:41.439Z,101185.59
2018-11-01T09:34:09.511Z,101192.65
2018-11-01T09:36:37.556Z,101202.02
2018-11-01T09:39:07.904Z,101207.72
2018-11-01T09:41:35.976Z,101210.14
2018-11-01T09:44:04.041Z,101210.61
2018-11-01T09:46:32.496Z,101210.26
2018-11-01T09:49:00.440Z,101222.64
2018-11-01T09:51:28.500Z,101211.03
2018-11-01T09:53:56.564Z,101198.53
2018-11-01T09:56:24.671Z,101196.22
2018-11-01T09:58:52.732Z,101194.59
2018-11-01T10:01:20.844Z,101187.79
2018-11-01T10:03:48.899Z,101178.53
2018-11-01T10:06:16.981Z,101175.52
2018-11-01T10:08:45.026Z,101178.19
2018-11-01T10:11:13.120Z,101177.72
2018-11-01T10:13:41.183Z,101163.72
2018-11-01T10:16:09.317Z,101158.63
2018-11-01T10:18:37.305Z,101162.09
2018-11-01T10:21:05.816Z,101149.94
2018-11-01T10:23:33.878Z,101139.28
2018-11-01T10:26:02.005Z,101127.34
2018-11-01T10:28:30.083Z,101132.80
2018-11-01T10:30:58.220Z,101125.03
2018-11-01T10:33:26.360Z,101115.20
2018-11-01T10:35:54.447Z,101108.45
2018-11-01T10:38:22.696Z,101103.81
2018-11-01T10:40:50.832Z,101095.94
2018-11-01T10:43:18.846Z,101086.66
2018-11-01T10:45:46.902Z,101089.78
2018-11-01T10:48:14.976Z,101086.33
2018-11-01T10:50:43.055Z,101074.05
2018-11-01T10:53:11.124Z,101075.08
2018-11-01T10:55:39.197Z,101081.44
2018-11-01T10:58:07.256Z,101081.78
2018-11-01T11:00:40.984Z,101074.81
2018-11-01T11:03:08.884Z,101075.84
2018-11-01T11:05:37.024Z,101075.67
2018-11-01T11:08:05.091Z,101074.45
2018-11-01T11:10:33.149Z,101071.52
2018-11-01T11:13:01.277Z,101063.87
2018-11-01T11:15:29.377Z,101071.37
2018-11-01T11:17:57.509Z,101064.53
2018-11-01T11:20:25.703Z,101070.01
2018-11-01T11:22:53.692Z,101072.00
2018-11-01T11:25:21.765Z,101069.04
2018-11-01T11:27:49.843Z,101070.55
2018-11-01T11:30:18.022Z,101065.56
2018-11-01T11:32:45.976Z,101063.47
2018-11-01T11:35:14.161Z,101063.45
2018-11-01T11:37:42.228Z,101063.30
2018-11-01T11:40:11.210Z,101062.39
2018-11-01T11:42:39.580Z,101065.53
2018-11-01T11:45:08.574Z,101058.70
2018-11-01T11:47:36.656Z,101054.09
2018-11-01T11:50:05.139Z,101045.11
2018-11-01T11:52:33.212Z,101046.62
2018-11-01T11:55:01.448Z,101039.30
2018-11-01T11:57:29.488Z,101036.16
2018-11-01T11:59:57.628Z,101034.11
2018-11-01T12:02:25.758Z,101028.43
2018-11-01T12:04:53.780Z,101028.09
2018-11-01T12:07:21.920Z,101023.83
2018-11-01T12:09:49.989Z,101030.88
2018-11-01T12:12:18.108Z,101021.14
2018-11-01T12:14:46.272Z,101024.41
2018-11-01T12:17:14.326Z,101022.77
2018-11-01T12:19:42.387Z,101018.75
2018-11-01T12:22:10.497Z,101018.20
2018-11-01T12:24:38.740Z,101019.14
2018-11-01T12:27:06.820Z,101012.98
2018-11-01T12:29:34.895Z,101008.20
2018-11-01T12:32:02.949Z,101000.67
2018-11-01T12:34:31.008Z,100992.81
2018-11-01T12:36:59.244Z,100992.61
2018-11-01T12:39:27.425Z,100991.97
2018-11-01T12:41:55.523Z,100990.57
2018-11-01T12:44:23.588Z,100982.27
2018-11-01T12:46:51.744Z,100986.47
2018-11-01T12:49:19.988Z,100981.99
2018-11-01T12:51:48.063Z,100986.31
2018-11-01T12:54:16.101Z,100976.97
2018-11-01T12:56:44.158Z,100961.25
2018-11-01T12:59:12.316Z,100962.03
2018-11-01T13:01:40.412Z,100971.28
2018-11-01T13:04:08.531Z,100957.39
2018-11-01T13:06:36.622Z,100953.70
2018-11-01T13:09:08.571Z,100944.69
2018-11-01T13:11:36.667Z,100939.02
2018-11-01T13:14:04.936Z,100936.78
2018-11-01T13:16:33.024Z,100931.25
2018-11-01T13:19:01.068Z,100931.94
2018-11-01T13:21:29.125Z,100928.47
2018-11-01T13:23:57.272Z,100932.64
2018-11-01T13:26:25.392Z,100935.51
2018-11-01T13:28:53.445Z,100934.45
2018-11-01T13:31:21.532Z,100936.05
2018-11-01T13:33:49.607Z,100931.09
2018-11-01T13:36:17.673Z,100928.89
2018-11-01T13:38:45.724Z,100929.74
2018-11-01T13:41:14.234Z,100922.79
2018-11-01T13:43:41.887Z,100916.90
2018-11-01T13:46:09.952Z,100914.60
2018-11-01T13:48:38.021Z,100912.42
2018-11-01T13:51:06.101Z,100900.40
2018-11-01T13:53:34.157Z,100907.77
2018-11-01T13:56:02.210Z,100908.77
2018-11-01T13:58:30.277Z,100901.48
2018-11-01T14:00:58.328Z,100898.11
2018-11-01T14:03:26.444Z,100901.06
2018-11-01T14:05:54.729Z,100893.79
2018-11-01T14:08:22.637Z,100885.72
2018-11-01T14:10:50.672Z,100887.28
2018-11-01T14:13:25.746Z,100890.06
2018-11-01T14:15:53.628Z,100890.63
2018-11-01T14:18:21.712Z,100890.18
2018-11-01T14:20:49.808Z,100893.41
2018-11-01T14:23:17.875Z,100893.79
2018-11-01T14:25:45.953Z,100887.29
2018-11-01T14:28:14.067Z,100880.73
2018-11-01T14:30:42.133Z,100891.49
2018-11-01T14:33:10.228Z,100898.80
2018-11-01T14:35:38.347Z,100906.20
2018-11-01T14:38:06.447Z,100903.22
2018-11-01T14:40:34.488Z,100904.48
2018-11-01T14:43:02.673Z,100900.68
2018-11-01T14:45:30.707Z,100889.84
2018-11-01T14:47:58.765Z,100893.30
2018-11-01T14:50:26.820Z,100891.34
2018-11-01T14:52:55.187Z,100899.33
2018-11-01T14:55:24.095Z,100905.45
2018-11-01T14:57:52.150Z,100898.65
2018-11-01T15:00:19.063Z,100896.80
2018-11-01T15:02:47.180Z,100894.25
2018-11-01T15:05:15.279Z,100888.95
2018-11-01T15:07:43.347Z,100885.25
2018-11-01T15:10:14.057Z,100880.39
2018-11-01T15:12:42.418Z,100880.85
2018-11-01T15:15:10.904Z,100888.49
2018-11-01T15:17:39.895Z,100889.88
2018-11-01T15:20:08.274Z,100880.64
2018-11-01T15:22:36.323Z,100885.13
2018-11-01T15:25:04.719Z,100876.34
2018-11-01T15:27:32.799Z,100855.43
2018-11-01T15:30:00.869Z,100844.23
2018-11-01T15:32:29.658Z,100855.08
2018-11-01T15:34:58.444Z,100835.91
2018-11-01T15:37:26.666Z,100862.61
2018-11-01T15:39:55.285Z,100852.77
2018-11-01T15:42:23.389Z,100849.20
2018-11-01T15:44:51.635Z,100843.73
2018-11-01T15:47:19.727Z,100846.86
2018-11-01T15:49:47.828Z,100840.61
2018-11-01T15:52:15.900Z,100840.04
2018-11-01T15:54:43.972Z,100839.22
2018-11-01T15:57:12.017Z,100844.20
2018-11-01T15:59:40.213Z,100831.94
2018-11-01T16:02:08.219Z,100844.30
2018-11-01T16:04:36.291Z,100835.42
2018-11-01T16:07:04.337Z,100837.37
2018-11-01T16:09:32.399Z,100836.91
2018-11-01T16:12:00.457Z,100823.41
2018-11-01T16:14:28.524Z,100810.11
2018-11-01T16:16:56.588Z,100808.05
2018-11-01T16:19:24.721Z,100808.05
2018-11-01T16:21:52.756Z,100812.42
2018-11-01T16:24:20.838Z,100821.09
2018-11-01T16:26:48.909Z,100820.38
2018-11-01T16:29:16.990Z,100831.92
2018-11-01T16:31:45.041Z,100839.42
2018-11-01T16:34:13.329Z,100828.12
2018-11-01T16:36:41.484Z,100824.88
2018-11-01T16:39:10.718Z,100827.40
2018-11-01T16:41:38.989Z,100829.02
2018-11-01T16:44:07.172Z,100828.66
2018-11-01T16:46:35.233Z,100833.17
2018-11-01T16:49:03.324Z,100832.70
2018-11-01T16:51:31.415Z,100832.23
2018-11-01T16:53:59.494Z,100818.73
2018-11-01T16:56:27.561Z,100809.96
2018-11-01T16:58:55.640Z,100811.45
2018-11-01T17:01:23.728Z,100808.67
2018-11-01T17:03:52.293Z,100807.97
2018-11-01T17:06:20.410Z,100807.64
2018-11-01T17:08:48.505Z,100809.59
2018-11-01T17:11:16.573Z,100807.18
2018-11-01T17:13:44.667Z,100810.73
2018-11-01T17:16:12.735Z,100818.72
2018-11-01T17:18:40.803Z,100828.07
2018-11-01T17:21:08.883Z,100818.47
2018-11-01T17:23:36.990Z,100814.78
2018-11-01T17:26:05.168Z,100829.55
2018-11-01T17:28:33.276Z,100825.63
2018-11-01T17:31:01.380Z,100824.00
2018-11-01T17:33:29.456Z,100825.63
2018-11-01T17:35:57.576Z,100835.64
2018-11-01T17:38:25.644Z,100839.93
2018-11-01T17:40:53.735Z,100839.68
2018-11-01T17:43:21.865Z,100844.19
2018-11-01T17:45:52.057Z,100837.14
2018-11-01T17:48:21.229Z,100844.64
2018-11-01T17:50:49.348Z,100841.05
2018-11-01T17:53:18.212Z,100856.63
2018-11-01T17:55:46.284Z,100854.89
2018-11-01T17:58:14.351Z,100857.19
2018-11-01T18:00:42.464Z,100859.94
2018-11-01T18:03:10.532Z,100853.11
2018-11-01T18:05:38.607Z,100863.63
2018-11-01T18:08:06.811Z,100872.97
2018-11-01T18:10:34.905Z,100865.35
2018-11-01T18:13:02.976Z,100865.35
2018-11-01T18:15:31.188Z,100863.25
2018-11-01T18:17:59.264Z,100860.83
2018-11-01T18:20:27.355Z,100874.10
2018-11-01T18:22:55.452Z,100865.10
2018-11-01T18:25:23.603Z,100855.20
2018-11-01T18:27:51.710Z,100859.34
2018-11-01T18:30:19.967Z,100866.39
2018-11-01T18:32:48.312Z,100861.30
2018-11-01T18:35:16.051Z,100853.24
2018-11-01T18:37:44.151Z,100862.21
2018-11-01T18:40:14.638Z,100869.60
2018-11-01T18:42:42.722Z,100865.70
2018-11-01T18:45:12.200Z,100869.50
2018-11-01T18:47:40.335Z,100859.91
2018-11-01T18:50:09.397Z,100865.10
2018-11-01T18:52:37.465Z,100869.60
2018-11-01T18:55:06.638Z,100875.02
2018-11-01T18:57:34.711Z,100873.85
2018-11-01T19:00:02.777Z,100876.05
2018-11-01T19:02:30.856Z,100876.30
2018-11-01T19:04:59.061Z,100879.39
2018-11-01T19:07:27.202Z,100879.52
2018-11-01T19:09:55.444Z,100879.14
2018-11-01T19:12:23.576Z,100868.73
2018-11-01T19:14:51.645Z,100868.86
2018-11-01T19:17:19.706Z,100869.08
2018-11-01T19:19:47.776Z,100868.26
2018-11-01T19:22:15.846Z,100872.19
2018-11-01T19:24:43.917Z,100879.67
2018-11-01T19:27:12.178Z,100869.52
2018-11-01T19:29:40.045Z,100871.16
2018-11-01T19:32:08.144Z,100865.36
2018-11-01T19:34:36.701Z,100869.86
2018-11-01T19:37:04.435Z,100863.16
2018-11-01T19:39:32.513Z,100863.89
2018-11-01T19:42:00.592Z,100868.73
2018-11-01T19:44:28.683Z,100864.58
2018-11-01T19:46:56.761Z,100866.21
2018-11-01T19:49:24.853Z,100863.09
2018-11-01T19:51:52.985Z,100858.13
2018-11-01T19:54:21.126Z,100852.84
2018-11-01T19:56:49.146Z,100857.22
2018-11-01T19:59:17.228Z,100859.20
2018-11-01T20:01:45.285Z,100864.14
2018-11-01T20:04:13.388Z,100870.14
2018-11-01T20:06:41.420Z,100862.31
2018-11-01T20:09:09.767Z,100865.33
2018-11-01T20:11:37.879Z,100867.41
2018-11-01T20:14:06.112Z,100874.33
2018-11-01T20:16:34.193Z,100874.10
2018-11-01T20:19:02.314Z,100866.84
2018-11-01T20:21:30.307Z,100876.52
2018-11-01T20:23:58.373Z,100885.84
2018-11-01T20:26:26.432Z,100890.91
2018-11-01T20:28:54.488Z,100891.81
2018-11-01T20:31:22.880Z,100896.66
2018-11-01T20:33:50.849Z,100895.15
2018-11-01T20:36:18.919Z,100900.66
2018-11-01T20:38:46.969Z,100897.85
2018-11-01T20:41:15.025Z,100899.51
2018-11-01T20:43:43.096Z,100893.03
2018-11-01T20:46:11.181Z,100894.28
2018-11-01T20:48:39.253Z,100902.67
2018-11-01T20:51:07.340Z,100907.51
2018-11-01T20:53:35.437Z,100910.36
2018-11-01T20:56:03.508Z,100921.73
2018-11-01T20:58:31.560Z,100921.92
2018-11-01T21:00:59.630Z,100926.06
2018-11-01T21:03:27.803Z,100915.91
2018-11-01T21:05:55.889Z,100916.47
2018-11-01T21:08:24.028Z,100924.89
2018-11-01T21:10:52.156Z,100920.48
2018-11-01T21:13:20.202Z,100925.32
2018-11-01T21:15:48.322Z,100930.59
2018-11-01T21:18:16.376Z,100926.88
2018-11-01T21:20:44.436Z,100920.30
2018-11-01T21:23:12.504Z,100927.13
2018-11-01T21:25:40.561Z,100927.61
2018-11-01T21:28:08.657Z,100926.23
2018-11-01T21:30:36.714Z,100937.51
2018-11-01T21:33:04.808Z,100938.67
2018-11-01T21:35:33.375Z,100937.59
2018-11-01T21:38:01.111Z,100946.58
2018-11-01T21:40:29.188Z,100946.18
2018-11-01T21:42:57.257Z,100953.09
2018-11-01T21:45:25.390Z,100951.48
2018-11-01T21:47:54.080Z,100959.78
2018-11-01T21:50:22.132Z,100958.41
2018-11-01T21:52:50.300Z,100960.27
2018-11-01T21:55:18.323Z,100955.77
2018-11-01T21:57:46.396Z,100951.63
2018-11-01T22:00:14.465Z,100949.77
2018-11-01T22:02:42.840Z,100946.44
2018-11-01T22:05:11.627Z,100954.48
2018-11-01T22:07:39.991Z,100961.05
2018-11-01T22:10:08.473Z,100969.94
2018-11-01T22:12:36.582Z,100964.49
2018-11-01T22:15:07.960Z,100959.53
2018-11-01T22:17:36.049Z,100955.23
2018-11-01T22:20:04.367Z,100960.30
2018-11-01T22:22:32.439Z,100971.91
2018-11-01T22:25:00.508Z,100983.79
2018-11-01T22:27:28.602Z,100984.84
2018-11-01T22:29:56.674Z,100977.36
2018-11-01T22:32:25.730Z,100988.56
2018-11-01T22:34:54.046Z,100988.90
2018-11-01T22:37:22.100Z,100985.57
2018-11-01T22:39:50.245Z,100990.84
2018-11-01T22:42:18.268Z,101000.52
2018-11-01T22:44:46.316Z,100997.53
2018-11-01T22:47:14.381Z,100992.79
2018-11-01T22:49:42.433Z,100990.63
2018-11-01T22:52:10.519Z,100990.14
2018-11-01T22:54:38.589Z,100986.64
2018-11-01T22:57:06.692Z,100988.84
2018-11-01T22:59:34.769Z,100987.80
2018-11-01T23:02:02.838Z,100983.95
2018-11-01T23:04:30.990Z,100982.27
2018-11-01T23:07:05.528Z,100983.88
2018-11-01T23:09:33.594Z,100979.25
2018-11-01T23:12:01.669Z,100990.87
2018-11-01T23:14:29.737Z,100983.95
2018-11-01T23:16:57.820Z,100984.21
2018-11-01T23:19:25.877Z,100984.30
2018-11-01T23:21:53.940Z,100981.30
2018-11-01T23:24:22.025Z,100986.91
2018-11-01T23:26:50.084Z,100994.95
2018-11-01T23:29:18.163Z,100999.44
2018-11-01T23:31:46.223Z,101004.00
2018-11-01T23:34:14.283Z,101005.23
2018-11-01T23:36:47.840Z,101008.56
2018-11-01T23:39:21.348Z,101006.14
2018-11-01T23:41:54.854Z,101006.47
2018-11-01T23:44:28.256Z,101010.36
2018-11-01T23:47:01.775Z,101014.02
2018-11-01T23:50:08.928Z,101010.55
2018-11-01T23:52:37.982Z,101008.43
2018-11-01T23:55:06.301Z,101026.16
2018-11-01T23:57:34.354Z,101011.27
